Huxford, AL

7:28 AM CDT on July 13, 2014 (GMT -0500)
Whiting Fld NAS (KNSE) Elev 200 ft | 30.73 °N, 87.02 °W | Change Station

Current weather conditions updated 32 minutes ago

Fog
Fog
72 °F
Feels Like 72 °F
N
4
Wind Variable Wind from SE

Today is forecast to be nearly the same temperature as yesterday.

Today
High -- | Low -- °F
--% Chance of Precip.
Yesterday
High -- | Low -- °F
Precip. -- in
5:55 AM 7:55 PM
Full, 98% visible
Pressure 30.06 in
Visibility 0.2 miles
Clouds
Dew Point 70 °F
Humidity 93%
Rainfall 0.00 in
Snow Depth Not available.
UV Not available.
Pollen 3.00 out of 12
Air Quality Not available.
Flu Activity Sporadic
METAR KNSE 131156Z AUTO 13003KT 1/4SM FG VV001 22/21 A3010 RMK AO2 SLP179 60000 70088 T02220211 10222 20211 53008 $

More Conditions Fewer Conditions

Pressure 30.06 in
Visibility 0.2 miles
Clouds
Dew Point 70 °F
Humidity 93%
Rainfall 0.00 in
Snow Depth Not available.
UV Not available.
Pollen 3.00 out of 12
Air Quality Not available.
Flu Activity Sporadic
METAR KNSE 131156Z AUTO 13003KT 1/4SM FG VV001 22/21 A3010 RMK AO2 SLP179 60000 70088 T02220211 10222 20211 53008 $

More Conditions Fewer Conditions

10-Day Weather Forecast

Almanac

Astronomy

Jul. 13, 2014 Rise Set
Actual Time 5:55 AM CDT 7:55 PM CDT
Civil Twilight 5:27 AM CDT 8:23 PM CDT
Nautical Twilight 4:54 AM CDT 8:56 PM CDT
Astronomical Twilight 4:18 AM CDT 9:31 PM CDT
Moon 8:54 PM CDT 7:16 AM CDT
Length of Visible Light 14h 55m
Length of Day
14h 00m
Tomorrow will be 0m 54s shorter.
Full, 98% of the Moon is Illuminated
Today
Full
Jul 18
Last Quarter
Jul 26
New
Aug 3
First Quarter
Aug 10
Full

Today's Extremes

State Highs State Lows

Community

WunderPhotos

Upload Photos

1,733,160 photos uploaded!

Nearby

Snow Depth

Station Depth Elevation
No new snow has been reported.

Earthquake Activity

City Distance Mag. Time & Date
No recent earthquake activity has been reported nearby.
Minimum magnitude displayed is 2.5.

Coastal Water Temperatures

Place Temperature
No Stations Reporting

Nearby Weather Stations

Station Location Temp. Heat Index Dew Point Humidity Wind Precip. Elev Updated Type
MesoWest PERDIDO RIV FARMS , Atmore, AL 70 °F - 68 °F 95% SE  at  5 mph 0.00 in / hr 298 ft 6:00 AM CDT MADIS
B.E.C., Atmore, AL 72.8 °F - 72 °F 97% SE  at  2.0 mph 0.00 in / hr 272 ft 7:25 AM CDT Normal
Perdue Hill, AL 73.4 °F 71 °F 71 °F 92% ENE  at  0.0 mph 0.00 in / hr 70 ft 7:25 AM CDT Normal

Show More Stations Show Fewer Stations